Time;durP1;ratioP1;P1;durP2;ratioP2;P2;SDS_P1;SDS_P2;PMS_P1;PMS_P2;Temp;Humidity;BMP_temperature;BMP_pressure;BME280_temperature;BME280_humidity;BME280_pressure;Samples;Min_cycle;Max_cycle;Signal;HPM_P1;HPM_P2
2021/11/01 00:01:57;;;;;;;22.55;14.93;;;;;;;9.31;62.82;99493.47;1731415;82;21010;-87
2021/11/01 00:04:23;;;;;;;21.68;14.13;;;;;;;9.26;62.85;99494.52;1731657;82;21503;-86
2021/11/01 00:06:49;;;;;;;29.35;17.42;;;;;;;9.25;62.95;99491.55;1702981;82;21087;-87
2021/11/01 00:09:15;;;;;;;24.75;15.95;;;;;;;9.24;62.99;99489.89;1731284;82;21119;-86
2021/11/01 00:11:42;;;;;;;26.65;16.65;;;;;;;9.26;63.07;99486.53;1724762;81;21117;-86
2021/11/01 00:14:08;;;;;;;26.77;15.50;;;;;;;9.26;63.13;99487.03;1730493;81;21007;-87
2021/11/01 00:16:34;;;;;;;25.08;15.30;;;;;;;9.22;63.18;99483.91;1731043;82;21086;-87
2021/11/01 00:19:00;;;;;;;22.48;14.40;;;;;;;9.21;63.22;99492.92;1721874;82;21445;-87
2021/11/01 00:21:26;;;;;;;20.08;13.50;;;;;;;9.19;63.29;99481.63;1732066;82;22132;-87
2021/11/01 00:23:52;;;;;;;25.82;14.73;;;;;;;9.16;63.35;99476.67;1732359;82;20918;-87
2021/11/01 00:26:18;;;;;;;25.30;15.15;;;;;;;9.16;63.40;99479.84;1731979;82;21009;-87
2021/11/01 00:28:45;;;;;;;24.80;15.25;;;;;;;9.13;63.46;99477.05;1732380;82;21080;-87
2021/11/01 00:31:12;;;;;;;24.67;15.55;;;;;;;9.14;63.55;99469.39;1731558;82;21010;-88
2021/11/01 00:33:38;;;;;;;25.37;16.90;;;;;;;9.13;63.62;99465.08;1731133;82;21121;-87
2021/11/01 00:36:04;;;;;;;25.00;15.23;;;;;;;9.08;63.71;99467.45;1731075;82;20997;-88
2021/11/01 00:38:30;;;;;;;23.18;13.95;;;;;;;9.06;63.78;99466.81;1731308;82;21009;-88
2021/11/01 00:40:56;;;;;;;23.40;14.60;;;;;;;9.04;63.83;99468.84;1759449;80;21000;-86
2021/11/01 00:43:22;;;;;;;22.60;13.30;;;;;;;9.06;63.88;99478.78;1786819;80;21007;-86
2021/11/01 00:45:49;;;;;;;21.37;13.68;;;;;;;9.05;63.92;99470.47;1786329;80;22255;-85
2021/11/01 00:48:15;;;;;;;22.95;13.45;;;;;;;9.04;63.95;99470.17;1787241;80;21035;-86
2021/11/01 00:50:41;;;;;;;23.85;14.15;;;;;;;9.07;64.00;99469.80;1787198;80;21076;-85
2021/11/01 00:53:08;;;;;;;22.00;13.75;;;;;;;9.13;64.04;99465.58;1786709;80;21638;-85
2021/11/01 00:55:52;;;;;;;21.45;12.63;;;;;;;9.18;64.07;99471.19;1787705;80;21634;-85
2021/11/01 00:58:06;;;;;;;22.40;13.58;;;;;;;9.19;64.14;99459.02;1779257;80;21143;-85
2021/11/01 01:00:32;;;;;;;21.70;12.43;;;;;;;9.24;64.16;99454.48;1787449;80;21016;-85
2021/11/01 01:02:58;;;;;;;19.42;13.93;;;;;;;9.27;64.18;99449.61;1787942;80;21524;-85
2021/11/01 01:05:24;;;;;;;18.67;12.88;;;;;;;9.34;64.25;99442.55;1787736;80;20981;-85
2021/11/01 01:07:51;;;;;;;20.65;13.70;;;;;;;9.34;64.26;99440.38;1787099;80;20964;-86
2021/11/01 01:10:17;;;;;;;22.00;14.10;;;;;;;9.33;64.29;99435.56;1787703;80;21137;-85
2021/11/01 01:12:43;;;;;;;21.82;12.47;;;;;;;9.32;64.33;99441.89;1787496;80;21008;-86
2021/11/01 01:15:16;;;;;;;21.23;13.22;;;;;;;9.29;64.35;99430.28;1787803;80;20995;-86
2021/11/01 01:17:42;;;;;;;23.02;13.90;;;;;;;9.28;64.40;99434.48;1787408;80;21016;-86
2021/11/01 01:20:13;;;;;;;25.30;13.40;;;;;;;9.27;64.44;99433.66;1787980;80;21048;-85
2021/11/01 01:22:38;;;;;;;;;;;;;;;9.24;64.46;99424.72;1790086;80;21257;-86
2021/11/01 01:25:14;;;;;;;21.85;13.85;;;;;;;9.16;64.51;99422.14;1787902;80;20124;-86
2021/11/01 01:27:39;;;;;;;20.85;14.18;;;;;;;9.11;64.59;99421.06;1786984;80;21016;-85
2021/11/01 01:30:06;;;;;;;22.82;13.60;;;;;;;9.06;64.64;99428.25;1787884;80;21031;-86
2021/11/01 01:32:32;;;;;;;22.15;13.90;;;;;;;9.02;64.69;99417.16;1787794;80;21079;-86
2021/11/01 01:34:58;;;;;;;26.23;16.12;;;;;;;8.97;64.72;99414.21;1787399;80;21129;-86
2021/11/01 01:37:24;;;;;;;22.25;15.00;;;;;;;8.92;64.77;99421.10;1787908;80;21482;-85
2021/11/01 01:39:50;;;;;;;22.48;13.38;;;;;;;8.86;64.83;99424.50;1788089;80;20991;-86
2021/11/01 01:42:16;;;;;;;26.97;15.90;;;;;;;8.83;64.87;99427.53;1786104;79;21044;-86
2021/11/01 01:44:42;;;;;;;23.40;15.10;;;;;;;8.82;64.95;99420.55;1736769;82;21012;-86
2021/11/01 01:47:10;;;;;;;24.77;14.87;;;;;;;8.78;64.98;99412.12;1767473;81;21138;-86
2021/11/01 01:49:36;;;;;;;22.75;14.58;;;;;;;8.78;65.02;99409.45;1767367;81;20981;-86
2021/11/01 01:52:05;;;;;;;26.17;15.38;;;;;;;8.78;65.10;99400.66;1767262;81;21028;-85
2021/11/01 01:54:31;;;;;;;23.70;15.87;;;;;;;8.74;65.15;99396.70;1767713;81;21047;-86
2021/11/01 01:56:57;;;;;;;26.80;16.10;;;;;;;8.68;65.21;99403.59;1767397;81;21098;-86
2021/11/01 01:59:23;;;;;;;25.77;15.35;;;;;;;8.64;65.25;99400.14;1767608;81;21840;-86
2021/11/01 02:01:50;;;;;;;23.27;14.83;;;;;;;8.61;65.28;99405.83;1767036;81;21000;-86
2021/11/01 02:04:23;;;;;;;24.95;15.18;;;;;;;8.59;65.35;99407.32;1767234;81;21558;-85
2021/11/01 02:07:09;;;;;;;26.55;15.55;;;;;;;8.57;65.40;99399.22;1766708;81;21011;-85
2021/11/01 02:10:03;;;;;;;21.42;14.18;;;;;;;8.58;65.46;99395.56;1767335;81;21012;-86
2021/11/01 02:12:34;;;;;;;23.52;15.03;;;;;;;8.56;65.52;99392.24;1767508;81;21081;-85
2021/11/01 02:15:17;;;;;;;26.12;15.23;;;;;;;8.51;65.57;99386.96;1767183;81;21449;-86
2021/11/01 02:17:44;;;;;;;21.75;14.05;;;;;;;8.51;65.65;99380.32;1727869;81;21023;-86
2021/11/01 02:20:18;;;;;;;29.85;16.52;;;;;;;8.51;65.69;99383.51;1767531;81;21012;-86
2021/11/01 02:23:01;;;;;;;24.70;14.65;;;;;;;8.49;65.76;99382.84;1767468;81;20985;-86
2021/11/01 02:25:56;;;;;;;23.22;15.93;;;;;;;8.49;65.83;99373.05;1767504;81;21789;-85
2021/11/01 02:28:25;;;;;;;24.45;14.70;;;;;;;8.52;65.88;99372.68;1764926;81;21497;-86
2021/11/01 02:30:52;;;;;;;23.80;14.83;;;;;;;8.52;65.95;99362.05;1767417;81;21019;-86
2021/11/01 02:33:18;;;;;;;22.50;14.10;;;;;;;8.53;66.00;99369.02;1767393;81;21003;-87
2021/11/01 02:35:45;;;;;;;20.70;13.08;;;;;;;8.56;66.05;99359.02;1767492;81;20988;-85
2021/11/01 02:38:16;;;;;;;22.17;12.30;;;;;;;8.60;66.11;99361.64;1767292;81;21082;-85
2021/11/01 02:40:44;;;;;;;19.90;13.15;;;;;;;8.64;66.18;99366.92;1767391;81;21068;-86
2021/11/01 02:43:11;;;;;;;22.25;12.95;;;;;;;8.70;66.23;99366.17;1768923;81;21035;-86
2021/11/01 02:45:37;;;;;;;25.12;13.78;;;;;;;8.70;66.27;99362.19;1768884;81;21063;-85
2021/11/01 02:48:03;;;;;;;21.12;13.95;;;;;;;8.74;66.35;99351.52;1768852;81;21043;-86
2021/11/01 02:50:29;;;;;;;20.75;13.38;;;;;;;8.74;66.37;99350.19;1769003;81;21547;-86
2021/11/01 02:52:56;;;;;;;25.85;15.25;;;;;;;8.73;66.40;99353.84;1767765;81;21657;-85
2021/11/01 02:55:22;;;;;;;26.80;15.13;;;;;;;8.71;66.44;99353.22;1769062;81;20992;-85
2021/11/01 02:57:48;;;;;;;22.22;12.90;;;;;;;8.67;66.48;99356.75;1768991;81;21051;-85
2021/11/01 03:00:17;;;;;;;23.25;14.33;;;;;;;8.65;66.52;99352.63;1768984;81;20949;-87
2021/11/01 03:02:43;;;;;;;20.77;13.70;;;;;;;8.60;66.54;99349.19;1769020;81;21153;-88
2021/11/01 03:05:13;;;;;;;19.10;13.78;;;;;;;8.56;66.59;99340.42;1769089;81;21063;-88
2021/11/01 03:07:40;;;;;;;22.77;13.53;;;;;;;8.53;66.62;99331.83;1768574;81;25852;-87
2021/11/01 03:10:07;;;;;;;22.60;13.22;;;;;;;8.50;66.67;99332.69;1769152;81;20992;-87
2021/11/01 03:12:33;;;;;;;19.80;13.50;;;;;;;8.47;66.73;99331.23;1769141;81;21016;-88
2021/11/01 03:15:05;;;;;;;21.65;13.20;;;;;;;8.42;66.76;99332.27;1768862;81;21041;-88
2021/11/01 03:17:36;;;;;;;20.62;14.38;;;;;;;8.41;66.84;99327.95;1769203;81;20996;-88
2021/11/01 03:20:07;;;;;;;21.33;14.43;;;;;;;8.40;66.89;99319.69;1769154;81;21453;-87
2021/11/01 03:22:37;;;;;;;22.20;13.55;;;;;;;8.41;66.97;99321.31;1769111;81;20988;-88
2021/11/01 03:25:18;;;;;;;21.55;13.68;;;;;;;8.44;67.02;99322.80;1769385;81;20996;-88
2021/11/01 03:27:45;;;;;;;21.57;13.88;;;;;;;8.44;67.07;99328.91;1750942;81;21179;-87
2021/11/01 03:30:12;;;;;;;20.85;13.15;;;;;;;8.41;67.10;99338.58;1769216;81;21040;-88
2021/11/01 03:32:38;;;;;;;23.12;13.65;;;;;;;8.39;67.15;99333.97;1769183;81;21030;-88
2021/11/01 03:35:04;;;;;;;19.85;12.82;;;;;;;8.38;67.19;99336.30;1768813;81;21564;-87
2021/11/01 03:37:30;;;;;;;22.27;14.03;;;;;;;8.35;67.23;99338.48;1741111;81;21059;-88
2021/11/01 03:39:57;;;;;;;20.52;12.80;;;;;;;8.31;67.28;99340.68;1769233;81;21520;-88
2021/11/01 03:42:25;;;;;;;19.23;13.25;;;;;;;8.28;67.33;99337.06;1761808;81;21525;-88
2021/11/01 03:44:58;;;;;;;18.95;12.45;;;;;;;8.26;67.36;99342.22;1759549;81;20993;-88
2021/11/01 03:47:21;;;;;;;22.87;12.95;;;;;;;8.24;67.41;99329.09;1758691;81;21099;-88
2021/11/01 03:49:56;;;;;;;23.20;13.55;;;;;;;8.21;67.46;99333.45;1759589;81;21072;-88
2021/11/01 03:52:24;;;;;;;23.02;14.28;;;;;;;8.18;67.50;99327.17;1758047;81;21511;-87
2021/11/01 03:54:51;;;;;;;20.97;13.75;;;;;;;8.18;67.55;99331.66;1759596;81;20992;-88
2021/11/01 03:57:18;;;;;;;20.32;13.35;;;;;;;8.18;67.61;99323.69;1759893;81;21016;-87
2021/11/01 03:59:44;;;;;;;19.65;13.20;;;;;;;8.18;67.65;99321.87;1759367;81;21000;-87
2021/11/01 04:02:14;;;;;;;20.50;13.15;;;;;;;8.14;67.67;99320.57;1735903;81;20992;-88
2021/11/01 04:04:47;;;;;;;22.27;13.22;;;;;;;8.12;67.72;99325.75;1759909;81;21177;-88
2021/11/01 04:07:14;;;;;;;21.40;12.63;;;;;;;8.12;67.79;99322.59;1758749;81;20992;-88
2021/11/01 04:09:40;;;;;;;18.73;13.70;;;;;;;8.11;67.82;99322.27;1759735;81;21056;-88
2021/11/01 04:12:09;;;;;;;21.82;14.03;;;;;;;8.09;67.85;99320.30;1759764;81;21024;-87
2021/11/01 04:14:45;;;;;;;20.88;13.30;;;;;;;8.06;67.92;99321.97;1759671;81;20985;-88
2021/11/01 04:17:12;;;;;;;25.32;14.40;;;;;;;8.03;67.96;99317.02;1759294;81;21090;-88
2021/11/01 04:19:47;;;;;;;21.57;13.90;;;;;;;8.00;68.03;99310.75;1759596;81;21496;-88
2021/11/01 04:22:05;;;;;;;19.10;13.43;;;;;;;7.97;68.06;99314.59;1758053;81;20949;-88
2021/11/01 04:24:31;;;;;;;22.73;13.45;;;;;;;7.92;68.10;99313.47;1759627;81;20996;-88
2021/11/01 04:26:58;;;;;;;18.20;13.13;;;;;;;7.88;68.14;99310.88;1759600;81;21047;-88
2021/11/01 04:29:26;;;;;;;20.17;12.93;;;;;;;7.83;68.21;99313.23;1759740;81;21792;-88
2021/11/01 04:31:59;;;;;;;20.08;13.28;;;;;;;7.80;68.25;99307.78;1759487;81;20984;-88
2021/11/01 04:36:54;;;;;;;20.70;13.62;;;;;;;7.74;68.37;99297.06;1759379;81;20997;-88
2021/11/01 04:39:34;;;;;;;21.95;13.72;;;;;;;7.71;68.41;99294.73;1759670;81;21012;-87
2021/11/01 04:55:18;;;;;;;20.25;14.03;;;;;;;7.54;68.79;99273.66;1759666;81;21078;-86
2021/11/01 04:57:44;;;;;;;22.75;14.38;;;;;;;7.52;68.83;99279.66;1759568;81;21032;-86
2021/11/01 05:00:12;;;;;;;24.12;15.05;;;;;;;7.54;68.90;99281.62;1759894;81;20984;-86
2021/11/01 05:02:42;;;;;;;23.42;14.15;;;;;;;7.54;68.92;99282.95;1759371;81;21571;-86
2021/11/01 05:05:09;;;;;;;21.00;14.80;;;;;;;7.53;68.98;99285.27;1759241;81;21631;-86
2021/11/01 05:07:35;;;;;;;19.45;13.32;;;;;;;7.56;69.04;99281.95;1759839;81;21221;-86
2021/11/01 05:10:20;;;;;;;22.30;13.60;;;;;;;7.56;69.08;99285.44;1759714;81;21515;-86
2021/11/01 05:12:40;;;;;;;24.63;14.23;;;;;;;7.56;69.11;99280.62;1757774;81;21060;-86
2021/11/01 05:15:12;;;;;;;20.48;14.28;;;;;;;7.56;69.16;99282.78;1759502;81;21029;-86
2021/11/01 05:20:40;;;;;;;22.07;13.93;;;;;;;7.53;69.25;99285.27;1759181;81;21822;-87
2021/11/01 05:25:34;;;;;;;20.20;14.07;;;;;;;7.52;69.37;99290.77;1759506;81;21016;-88
2021/11/01 05:30:36;;;;;;;18.90;12.93;;;;;;;7.46;69.42;99289.63;1759685;81;21060;-87
2021/11/01 05:33:16;;;;;;;20.85;13.78;;;;;;;7.44;69.49;99283.69;1758581;81;21145;-87
2021/11/01 05:35:32;;;;;;;22.95;14.85;;;;;;;7.43;69.52;99286.01;1757183;81;21052;-87
2021/11/01 05:37:58;;;;;;;23.62;13.98;;;;;;;7.43;69.56;99286.50;1759540;81;21066;-87
2021/11/01 05:40:24;;;;;;;19.50;13.58;;;;;;;7.43;69.62;99278.55;1759573;81;20996;-87
2021/11/01 05:42:50;;;;;;;20.35;13.48;;;;;;;7.45;69.64;99279.22;1759583;80;21446;-87
2021/11/01 05:45:17;;;;;;;18.77;13.35;;;;;;;7.45;69.69;99284.02;1759654;81;22018;-87
2021/11/01 05:47:46;;;;;;;21.95;13.83;;;;;;;7.46;69.75;99283.00;1759699;81;21492;-87
2021/11/01 05:50:11;;;;;;;21.10;13.18;;;;;;;7.47;69.79;99287.81;1758939;81;21048;-87
2021/11/01 05:52:37;;;;;;;23.07;13.72;;;;;;;7.45;69.82;99290.66;1759771;81;20955;-87
2021/11/01 05:55:14;;;;;;;20.57;13.28;;;;;;;7.43;69.88;99290.48;1759561;81;21497;-87
2021/11/01 05:58:00;;;;;;;19.92;14.05;;;;;;;7.43;69.94;99289.98;1758019;81;21166;-87
2021/11/01 06:02:56;;;;;;;18.95;12.98;;;;;;;7.40;70.05;99279.73;1742319;81;20992;-87
2021/11/01 06:05:27;;;;;;;21.00;13.85;;;;;;;7.41;70.09;99284.05;1758218;81;38695;-87
2021/11/01 06:15:43;;;;;;;20.92;13.25;;;;;;;7.75;70.18;99290.73;1759590;81;20990;-86
2021/11/01 06:18:09;;;;;;;20.37;13.25;;;;;;;7.78;70.21;99294.34;1759545;81;21014;-87
2021/11/01 06:20:35;;;;;;;22.87;13.93;;;;;;;7.78;70.24;99299.16;1759484;81;21008;-87
2021/11/01 06:23:02;;;;;;;17.82;12.98;;;;;;;7.80;70.26;99298.50;1759655;81;21821;-87
2021/11/01 06:25:29;;;;;;;19.23;13.20;;;;;;;7.84;70.28;99302.95;1735766;81;21013;-87
2021/11/01 06:27:55;;;;;;;17.60;12.70;;;;;;;7.93;70.30;99304.02;1759654;81;21110;-87
2021/11/01 06:30:33;;;;;;;20.17;13.38;;;;;;;8.10;70.24;99296.70;1759520;81;21044;-87
2021/11/01 06:33:12;;;;;;;18.80;13.22;;;;;;;8.25;70.20;99301.55;1759095;81;21016;-87
2021/11/01 06:43:44;;;;;;;19.90;13.35;;;;;;;8.84;70.16;99301.55;1754976;79;20888;-88
2021/11/01 06:56:48;;;;;;;20.97;14.00;;;;;;;9.28;69.85;99317.42;1761393;79;21031;-87
2021/11/01 07:15:26;;;;;;;20.50;14.60;;;;;;;10.02;69.13;99325.41;1767497;80;21134;-86
2021/11/01 07:18:02;;;;;;;21.00;15.08;;;;;;;10.09;68.99;99328.95;1771337;80;21488;-88
2021/11/01 08:28:17;;;;;;;21.23;15.53;;;;;;;11.98;66.12;99350.05;1778161;80;20895;-84
2021/11/01 08:39:00;;;;;;;18.87;14.43;;;;;;;12.24;65.65;99351.91;1725605;82;21078;-85
2021/11/01 08:41:40;;;;;;;23.22;15.55;;;;;;;12.31;65.56;99356.23;1765971;80;21034;-84
2021/11/01 08:46:49;;;;;;;18.80;14.40;;;;;;;12.53;65.38;99358.97;1736687;81;21120;-85
2021/11/01 08:52:06;;;;;;;21.73;15.40;;;;;;;12.68;65.15;99364.61;1766144;80;21050;-85
2021/11/01 09:01:25;;;;;;;22.25;15.23;;;;;;;12.84;64.93;99369.53;1778868;80;21075;-86
2021/11/01 09:02:47;;;;;;;21.55;15.10;;;;;;;12.97;64.70;99371.65;1766571;79;21075;-83
2021/11/01 09:05:58;;;;;;;21.05;15.23;;;;;;;13.07;64.60;99375.22;1764034;79;21062;-83
2021/11/01 09:26:04;;;;;;;21.20;15.35;;;;;;;13.64;63.54;99364.18;1731742;81;21022;-84
2021/11/01 09:41:19;;;;;;;19.95;15.32;;;;;;;13.98;62.72;99371.79;1759919;80;21159;-80
2021/11/01 09:43:49;;;;;;;20.32;14.38;;;;;;;14.05;62.58;99371.22;1758484;80;21545;-81
2021/11/01 09:46:13;;;;;;;29.55;16.87;;;;;;;14.12;62.43;99374.67;1736087;82;21053;-81
2021/11/01 09:48:40;;;;;;;22.40;15.15;;;;;;;14.06;62.11;99348.75;1754971;81;21092;-81
2021/11/01 09:51:07;;;;;;;23.35;14.98;;;;;;;14.26;62.21;99368.17;1754838;80;21017;-85
2021/11/01 09:53:41;;;;;;;21.93;15.15;;;;;;;14.30;62.02;99376.09;1754481;81;21750;-85
2021/11/01 09:56:19;;;;;;;29.15;19.42;;;;;;;14.32;61.75;99359.24;1737034;82;21005;-87
2021/11/01 10:01:25;;;;;;;34.18;21.73;;;;;;;14.49;61.62;99371.64;1734096;81;21061;-88
2021/11/01 10:03:50;;;;;;;52.35;28.75;;;;;;;14.55;61.51;99376.63;1755831;80;21029;-85
2021/11/01 10:06:20;;;;;;;27.40;17.12;;;;;;;14.56;61.36;99371.05;1749875;81;21272;-86
2021/11/01 10:08:56;;;;;;;27.58;17.70;;;;;;;14.62;61.27;99364.80;1746142;81;20993;-86
2021/11/01 10:11:27;;;;;;;53.40;27.93;;;;;;;14.65;61.13;99366.20;1757144;80;20938;-86
2021/11/01 10:13:59;;;;;;;27.15;16.82;;;;;;;14.69;61.02;99366.06;1737324;82;20993;-86
2021/11/01 10:19:29;;;;;;;33.88;21.35;;;;;;;14.83;60.83;99371.60;1739455;82;21155;-87
2021/11/01 10:21:59;;;;;;;26.82;18.52;;;;;;;14.82;60.58;99345.80;1752107;80;21608;-87
2021/11/01 10:24:38;;;;;;;29.07;19.90;;;;;;;14.82;60.58;99345.80;1748055;82;20972;-87
2021/11/01 10:27:05;;;;;;;22.37;16.02;;;;;;;14.94;60.49;99362.81;1760056;80;21010;-85
2021/11/01 10:29:28;;;;;;;26.33;18.05;;;;;;;14.98;60.38;99374.23;1722208;82;21018;-86
2021/11/01 10:31:55;;;;;;;19.77;15.78;;;;;;;14.93;60.29;99355.28;1732709;82;21691;-85
2021/11/01 10:34:27;;;;;;;19.87;14.43;;;;;;;15.12;60.19;99380.27;1732584;82;21055;-86
2021/11/01 10:36:56;;;;;;;21.90;14.43;;;;;;;15.21;60.09;99378.09;1732357;81;20995;-86
2021/11/01 10:39:23;;;;;;;22.70;14.63;;;;;;;15.23;59.96;99378.19;1732326;82;21527;-86
2021/11/01 10:42:43;;;;;;;24.15;15.65;;;;;;;15.24;59.87;99377.13;1732982;82;21020;-85
2021/11/01 11:12:03;;;;;;;16.17;13.50;;;;;;;15.59;59.08;99389.94;1759808;81;21082;-85
2021/11/01 11:14:33;;;;;;;16.52;14.13;;;;;;;15.70;58.98;99388.66;1758752;80;21475;-84
2021/11/01 11:30:47;;;;;;;17.07;13.45;;;;;;;16.02;58.66;99395.14;1759464;81;20995;-84
2021/11/01 11:33:01;;;;;;;19.35;14.15;;;;;;;15.98;58.61;99400.98;1753016;81;21495;-84
2021/11/01 11:42:09;;;;;;;17.05;13.80;;;;;;;15.83;58.53;99405.14;1759728;81;21379;-84
2021/11/01 11:49:17;;;;;;;19.23;15.03;;;;;;;15.84;58.62;99401.39;1766473;81;21061;-84
2021/11/01 11:51:56;;;;;;;23.12;15.55;;;;;;;15.88;58.64;99397.20;1781932;80;21206;-84
2021/11/01 11:54:46;;;;;;;22.55;16.20;;;;;;;15.94;58.66;99394.93;1781846;80;21019;-84
2021/11/01 11:57:28;;;;;;;24.25;17.17;;;;;;;15.96;58.72;99389.64;1781173;80;20983;-84
2021/11/01 11:59:56;;;;;;;24.35;17.42;;;;;;;15.98;58.70;99385.36;1781854;80;21491;-84
2021/11/01 12:02:40;;;;;;;24.50;17.90;;;;;;;15.90;58.69;99391.09;1781357;80;21515;-83
2021/11/01 12:05:28;;;;;;;23.32;17.15;;;;;;;15.83;58.68;99391.70;1739564;80;21515;-84
2021/11/01 12:08:13;;;;;;;22.82;17.73;;;;;;;15.70;58.70;99389.17;1777736;80;21038;-83
2021/11/01 12:11:14;;;;;;;27.20;18.15;;;;;;;15.64;58.74;99390.09;1781522;80;20995;-84
2021/11/01 12:19:04;;;;;;;19.85;16.00;;;;;;;15.46;58.89;99387.70;1781289;80;21107;-85
2021/11/01 12:21:32;;;;;;;23.00;15.93;;;;;;;15.44;58.93;99388.47;1781504;80;21019;-84
2021/11/01 12:23:58;;;;;;;19.65;15.08;;;;;;;15.41;58.96;99400.98;1781925;80;21467;-85
2021/11/01 12:26:26;;;;;;;22.58;15.72;;;;;;;15.42;59.00;99400.47;1781717;80;21043;-85
2021/11/01 12:29:01;;;;;;;19.95;14.47;;;;;;;15.34;59.02;99402.93;1781933;80;21469;-85
2021/11/01 12:31:28;;;;;;;21.55;16.00;;;;;;;15.29;59.10;99400.11;1781780;80;21677;-84
2021/11/01 12:34:06;;;;;;;27.37;16.57;;;;;;;15.20;59.17;99398.76;1781612;80;20991;-84
2021/11/01 12:39:18;;;;;;;19.48;15.83;;;;;;;15.12;59.34;99399.08;1781750;80;21031;-85
2021/11/01 12:47:51;;;;;;;23.07;17.40;;;;;;;15.02;59.52;99402.80;1780149;80;21023;-84
2021/11/01 12:58:30;;;;;;;20.05;16.48;;;;;;;15.13;59.81;99409.30;1734135;82;21080;-82
2021/11/01 13:00:57;;;;;;;19.07;15.38;;;;;;;15.14;59.84;99402.86;1734023;82;20988;-82
2021/11/01 13:03:23;;;;;;;22.22;14.65;;;;;;;15.13;59.90;99402.59;1685577;82;21008;-82
2021/11/01 13:05:55;;;;;;;20.48;15.80;;;;;;;15.11;59.95;99400.63;1734148;82;21000;-82
2021/11/01 13:08:28;;;;;;;23.85;18.02;;;;;;;15.04;60.02;99398.02;1734228;82;21104;-82
2021/11/01 13:11:19;;;;;;;22.48;16.85;;;;;;;15.02;60.08;99397.44;1733505;82;21175;-82
2021/11/01 13:18:50;;;;;;;18.35;13.85;;;;;;;15.00;60.33;99391.45;1733839;82;21064;-82
2021/11/01 13:21:21;;;;;;;16.00;13.53;;;;;;;14.92;60.38;99385.02;1708749;82;21135;-82
2021/11/01 13:24:03;;;;;;;18.52;14.15;;;;;;;14.85;60.47;99394.48;1733944;82;21921;-82
2021/11/01 13:26:38;;;;;;;18.07;14.07;;;;;;;14.76;60.50;99392.32;1732651;82;21032;-81
2021/11/01 13:37:26;;;;;;;23.73;15.95;;;;;;;14.33;60.72;99380.19;1734035;82;21110;-82
2021/11/01 13:40:13;;;;;;;23.70;15.13;;;;;;;14.27;60.77;99383.23;1733961;82;20985;-82
2021/11/01 13:42:46;;;;;;;20.82;14.47;;;;;;;14.25;60.89;99393.89;1734156;82;21024;-81
2021/11/01 13:45:13;;;;;;;24.55;15.60;;;;;;;14.21;60.94;99390.81;1761230;79;20994;-82
2021/11/01 13:47:52;;;;;;;24.50;16.35;;;;;;;14.21;60.94;99390.81;1780307;80;21038;-82
2021/11/01 13:50:25;;;;;;;30.48;21.35;;;;;;;14.10;61.20;99394.20;1780061;80;21769;-82
2021/11/01 13:53:15;;;;;;;33.00;21.97;;;;;;;14.10;61.20;99394.20;1779996;80;21451;-82
2021/11/01 13:55:46;;;;;;;26.33;18.45;;;;;;;14.09;61.09;99397.08;1778338;80;21557;-82
2021/11/01 14:00:53;;;;;;;25.52;15.70;;;;;;;13.91;61.42;99380.39;1779845;80;21023;-83
2021/11/01 14:11:35;;;;;;;26.00;16.23;;;;;;;13.84;61.61;99399.72;1780067;80;21061;-83
2021/11/01 14:14:23;;;;;;;23.77;16.02;;;;;;;13.78;61.69;99400.58;1778794;80;21043;-83
2021/11/01 14:16:50;;;;;;;30.75;18.62;;;;;;;13.73;61.80;99405.23;1777662;80;21820;-83
2021/11/01 14:19:19;;;;;;;29.92;19.35;;;;;;;13.72;61.90;99413.51;1779009;80;20999;-83
2021/11/01 15:07:45;;;;;;;32.85;23.73;;;;;;;13.40;63.13;99389.34;1734046;82;21051;-83
2021/11/01 15:20:56;;;;;;;26.52;17.92;;;;;;;13.38;63.44;99399.94;1734518;82;21028;-84
2021/11/01 16:19:09;;;;;;;39.25;21.60;;;;;;;12.93;64.89;99389.66;1675911;81;21535;-85
2021/11/01 16:21:35;;;;;;;38.20;22.13;;;;;;;12.86;64.98;99390.20;1733939;82;21020;-84
2021/11/01 16:24:01;;;;;;;38.78;22.45;;;;;;;12.81;65.10;99394.00;1782287;80;20979;-84
2021/11/01 16:26:29;;;;;;;39.48;22.27;;;;;;;12.81;65.21;99392.66;1733903;82;21028;-84
2021/11/01 16:29:03;;;;;;;43.35;21.65;;;;;;;12.81;65.28;99398.02;1782373;80;21477;-84
2021/11/01 16:31:33;;;;;;;45.40;25.00;;;;;;;12.81;65.38;99388.65;1734917;82;21055;-84
2021/11/01 16:34:05;;;;;;;;;;;;;;;12.79;65.45;99392.89;1750143;80;21013;-84
2021/11/01 16:39:05;;;;;;;109.25;66.97;;;;;;;12.65;65.57;99394.45;1755135;81;21057;-83
2021/11/01 16:41:33;;;;;;;87.30;58.38;;;;;;;12.61;65.64;99402.06;1760179;80;21510;-85
2021/11/01 16:44:12;;;;;;;42.23;29.55;;;;;;;12.60;65.71;99394.23;1782084;80;21046;-85
2021/11/01 16:46:29;;;;;;;;;;;;;;;12.60;65.77;99394.23;1770535;79;21050;-86
2021/11/01 16:48:55;;;;;;;28.55;19.02;;;;;;;12.59;65.80;99397.96;1759673;81;20728;-85
2021/11/01 16:51:21;;;;;;;28.60;18.82;;;;;;;12.58;65.85;99397.14;1682763;82;21044;-85
2021/11/01 16:53:49;;;;;;;24.23;17.48;;;;;;;12.58;65.92;99394.97;1790638;79;21097;-86
2021/11/01 16:56:41;;;;;;;36.05;22.05;;;;;;;12.56;65.93;99395.70;1770156;79;21593;-85
2021/11/01 16:58:58;;;;;;;26.00;17.85;;;;;;;12.52;66.02;99392.08;1798270;79;21050;-86
2021/11/01 17:01:23;;;;;;;27.93;20.15;;;;;;;12.48;66.10;99394.89;1793636;79;20948;-85
2021/11/01 17:03:54;;;;;;;44.67;30.08;;;;;;;12.46;66.18;99392.92;1784300;80;20984;-85
2021/11/01 17:06:43;;;;;;;80.60;48.95;;;;;;;12.43;66.25;99392.51;1708969;82;21777;-85
2021/11/01 17:22:51;;;;;;;53.65;34.48;;;;;;;12.29;66.75;99398.37;1779239;80;21059;-86
2021/11/01 17:25:19;;;;;;;63.13;46.60;;;;;;;12.27;66.85;99395.09;1729110;82;21026;-86
2021/11/01 17:36:45;;;;;;;35.60;24.55;;;;;;;12.19;67.19;99389.12;1771143;79;21609;-86
2021/11/01 18:39:37;;;;;;;61.55;36.38;;;;;;;11.72;69.13;99403.42;1740944;81;21045;-84
2021/11/01 18:42:20;;;;;;;62.58;36.80;;;;;;;11.70;69.19;99398.77;1706456;82;21874;-84
2021/11/01 18:44:38;;;;;;;58.33;34.63;;;;;;;11.67;69.24;99403.19;1717803;81;21010;-84
2021/11/01 18:52:13;;;;;;;44.00;28.52;;;;;;;11.62;69.46;99417.13;1732120;82;21052;-85
2021/11/01 18:54:43;;;;;;;51.35;32.70;;;;;;;11.61;69.52;99412.01;1732489;82;21805;-85
2021/11/01 18:57:12;;;;;;;53.15;34.80;;;;;;;11.58;69.59;99411.05;1732712;82;21045;-85
2021/11/01 18:59:40;;;;;;;56.63;35.58;;;;;;;11.56;69.66;99410.44;1732931;82;20997;-85
2021/11/01 19:02:36;;;;;;;50.98;33.13;;;;;;;11.54;69.71;99408.78;1733075;82;20993;-85
2021/11/01 19:05:00;;;;;;;47.00;31.73;;;;;;;11.52;69.76;99412.17;1731295;82;21038;-85
2021/11/01 19:07:41;;;;;;;51.83;32.78;;;;;;;11.50;69.84;99412.08;1732232;82;21455;-85
2021/11/01 19:10:17;;;;;;;46.28;28.65;;;;;;;11.49;69.89;99415.25;1730893;82;21042;-85
2021/11/01 19:13:11;;;;;;;44.77;27.75;;;;;;;11.49;69.96;99409.91;1727151;82;21509;-84
2021/11/01 20:04:01;;;;;;;58.38;30.68;;;;;;;11.27;71.22;99403.03;1774740;80;21023;-83
2021/11/01 20:14:38;;;;;;;46.25;29.27;;;;;;;11.18;71.47;99406.91;1766957;80;21150;-84
2021/11/01 21:25:58;;;;;;;41.28;20.48;;;;;;;10.81;73.52;99360.62;1776945;79;20999;-85
2021/11/01 21:28:24;;;;;;;32.50;18.23;;;;;;;10.78;73.60;99359.69;1758271;79;21546;-86
2021/11/01 21:30:51;;;;;;;35.20;20.17;;;;;;;10.74;73.69;99364.59;1769796;79;21054;-86
2021/11/01 21:33:22;;;;;;;34.63;21.95;;;;;;;10.71;73.76;99362.31;1785613;79;21030;-85
2021/11/01 21:35:51;;;;;;;38.00;20.52;;;;;;;10.70;73.81;99359.83;1798583;79;21292;-86
2021/11/01 21:38:13;;;;;;;35.23;19.62;;;;;;;10.69;73.89;99361.70;1768420;79;21066;-86
2021/11/01 21:40:42;;;;;;;32.23;19.27;;;;;;;10.67;73.96;99367.72;1762615;80;21041;-85
2021/11/01 21:43:08;;;;;;;32.00;18.40;;;;;;;10.65;74.03;99362.28;1755750;81;20998;-85
2021/11/01 21:45:34;;;;;;;27.62;17.60;;;;;;;10.64;74.12;99364.62;1757834;81;21057;-84
2021/11/01 21:48:00;;;;;;;26.52;17.48;;;;;;;10.63;74.18;99357.63;1786134;79;21106;-86
2021/11/01 21:50:26;;;;;;;33.30;18.92;;;;;;;10.59;74.25;99355.87;1755451;81;21017;-86
2021/11/01 21:52:54;;;;;;;33.78;18.80;;;;;;;10.57;74.33;99349.09;1778058;80;20988;-86
2021/11/01 21:55:23;;;;;;;28.45;17.37;;;;;;;10.58;74.38;99352.08;1741249;81;21557;-86